CheckWX is a tool to help pilots better visualize weather data.  It is not intended as a substitute for an official pre-flight weather briefing.

18:48:02 UTC

KGUP METAR
Gallup Municipal Airport
Gallup, New Mexico, USA
Current

55 mins ago

KGUP 221753Z AUTO 24008KT 3/4SM -SN BR FEW008 OVC012 M01/M02 A2969 RMK AO2 SLP077 P0003 60010 T10111022 11006 21017 50006
Observed
Feb-22 @ 17:53 UTC
Wind
  • 240° at 8 KTS
Visibility
3/4 SM
Flight Rules
LIFR
Conditions
Light Snow, Mist
Cloud Levels
  • Few at 800' AGL
  • Overcast at 1,200' AGL
Temperature
-1°C / 30°F
Dewpoint
-2°C / 28°F
Humidity
93%
Altimeter
29.69" Hg
Pressure
1007.7 hPa
Current Rain
0.03"
Previous

2 hours ago

KGUP 221716Z AUTO 00000KT 1/2SM SN FZFG FEW007 OVC013 M02/M02 A2970 RMK AO2 P0001 T10171022
Observed
Feb-22 @ 17:16 UTC
Visibility
1/2 SM
Flight Rules
LIFR
Conditions
Snow, Freezing Fog
Cloud Levels
  • Few at 700' AGL
  • Overcast at 1,300' AGL
Temperature
-2°C / 28°F
Dewpoint
-2°C / 28°F
Humidity
100%
Altimeter
29.7" Hg
Pressure
1005.72 hPa
Current Rain
0.01"
Previous

2 hours ago

KGUP 221653Z AUTO 24004KT 3/4SM -SN BR BKN016 OVC033 M01/M02 A2970 RMK AO2 SLP079 P0001 T10111022
Observed
Feb-22 @ 16:53 UTC
Wind
  • 240° at 4 KTS
Visibility
3/4 SM
Flight Rules
LIFR
Conditions
Light Snow, Mist
Cloud Levels
  • Broken at 1,600' AGL
  • Overcast at 3,300' AGL
Temperature
-1°C / 30°F
Dewpoint
-2°C / 28°F
Humidity
93%
Altimeter
29.7" Hg
Pressure
1007.9 hPa
Current Rain
0.01"